createdAt,value
2023-05-16T00:00:15.234Z,101177.22
2023-05-16T00:02:42.167Z,101177.72
2023-05-16T00:05:10.634Z,101175.53
2023-05-16T00:07:37.180Z,101180.50
2023-05-16T00:10:03.827Z,101175.25
2023-05-16T00:12:30.383Z,101186.69
2023-05-16T00:14:57.070Z,101179.88
2023-05-16T00:17:23.916Z,101180.31
2023-05-16T00:19:54.039Z,101183.16
2023-05-16T00:22:21.027Z,101187.44
2023-05-16T00:24:47.422Z,101194.19
2023-05-16T00:27:13.836Z,101199.22
2023-05-16T00:29:40.229Z,101202.84
2023-05-16T00:32:08.885Z,101199.69
2023-05-16T00:34:35.649Z,101201.59
2023-05-16T00:37:02.214Z,101205.13
2023-05-16T00:39:28.813Z,101200.78
2023-05-16T00:41:56.949Z,101212.28
2023-05-16T00:44:23.350Z,101202.97
2023-05-16T00:46:49.840Z,101213.22
2023-05-16T00:49:16.430Z,101206.34
2023-05-16T00:51:42.988Z,101209.97
2023-05-16T00:54:10.318Z,101209.13
2023-05-16T00:56:36.945Z,101209.13
2023-05-16T00:59:03.880Z,101209.25
2023-05-16T01:01:30.553Z,101208.50
2023-05-16T01:03:57.218Z,101203.91
2023-05-16T01:06:23.883Z,101214.47
2023-05-16T01:08:51.256Z,101210.94
2023-05-16T01:11:23.358Z,101213.53
2023-05-16T01:14:10.582Z,101222.81
2023-05-16T01:16:42.986Z,101227.00
2023-05-16T01:19:46.967Z,101219.38
2023-05-16T01:22:29.249Z,101223.34
2023-05-16T01:25:51.144Z,101226.28
2023-05-16T01:28:18.165Z,101235.44
2023-05-16T01:30:44.929Z,101235.03
2023-05-16T01:33:11.372Z,101237.09
2023-05-16T01:35:58.637Z,101229.56
2023-05-16T01:38:46.186Z,101235.72
2023-05-16T01:41:30.474Z,101241.25
2023-05-16T01:44:05.162Z,101243.31
2023-05-16T01:46:37.299Z,101236.41
2023-05-16T01:49:35.826Z,101252.19
2023-05-16T01:52:09.098Z,101252.38
2023-05-16T01:54:39.478Z,101253.09
2023-05-16T01:57:08.260Z,101261.22
2023-05-16T01:59:36.044Z,101265.53
2023-05-16T02:02:03.398Z,101266.56
2023-05-16T02:04:29.941Z,101264.03
2023-05-16T02:06:56.921Z,101272.16
2023-05-16T02:09:23.453Z,101270.78
2023-05-16T02:11:49.861Z,101277.47
2023-05-16T02:14:16.296Z,101273.50
2023-05-16T02:16:42.800Z,101281.22
2023-05-16T02:19:09.287Z,101284.78
2023-05-16T02:21:36.124Z,101289.34
2023-05-16T02:24:02.526Z,101282.91
2023-05-16T02:26:28.976Z,101287.47
2023-05-16T02:28:55.397Z,101288.31
2023-05-16T02:31:28.749Z,101290.81
2023-05-16T02:33:55.850Z,101291.00
2023-05-16T02:36:22.359Z,101301.75
2023-05-16T02:38:48.791Z,101304.34
2023-05-16T02:41:15.251Z,101305.06
2023-05-16T02:43:41.747Z,101310.28
2023-05-16T02:46:31.351Z,101307.59
2023-05-16T02:48:57.859Z,101308.53
2023-05-16T02:51:26.264Z,101313.75
2023-05-16T02:53:53.262Z,101322.22
2023-05-16T02:56:21.680Z,101321.56
2023-05-16T02:58:49.854Z,101325.00
2023-05-16T03:01:17.367Z,101325.13
2023-05-16T03:03:43.920Z,101326.78
2023-05-16T03:06:10.551Z,101324.34
2023-05-16T03:08:37.219Z,101326.88
2023-05-16T03:11:03.712Z,101329.47
2023-05-16T03:13:30.323Z,101333.09
2023-05-16T03:15:56.753Z,101328.09
2023-05-16T03:18:23.251Z,101338.09
2023-05-16T03:20:49.694Z,101340.97
2023-05-16T03:23:16.122Z,101342.81
2023-05-16T03:25:43.185Z,101339.66
2023-05-16T03:28:09.773Z,101339.09
2023-05-16T03:30:36.326Z,101348.13
2023-05-16T03:33:04.140Z,101338.09
2023-05-16T03:35:31.912Z,101351.59
2023-05-16T03:37:58.560Z,101347.59
2023-05-16T03:40:25.032Z,101347.78
2023-05-16T03:42:52.636Z,101351.53
2023-05-16T03:45:19.304Z,101347.66
2023-05-16T03:47:45.873Z,101362.41
2023-05-16T03:50:12.452Z,101355.91
2023-05-16T03:52:38.998Z,101368.53
2023-05-16T03:55:05.971Z,101364.78
2023-05-16T03:57:33.288Z,101369.53
2023-05-16T04:00:00.139Z,101369.59
2023-05-16T04:02:26.620Z,101381.78
2023-05-16T04:04:53.057Z,101373.31
2023-05-16T04:07:20.753Z,101381.38
2023-05-16T04:09:48.357Z,101389.28
2023-05-16T04:12:14.740Z,101387.00
2023-05-16T04:14:41.152Z,101387.28
2023-05-16T04:17:07.688Z,101393.34
2023-05-16T04:19:34.208Z,101399.63
2023-05-16T04:22:00.658Z,101406.59
2023-05-16T04:24:28.902Z,101404.06
2023-05-16T04:26:55.667Z,101403.25
2023-05-16T04:29:22.092Z,101407.78
2023-05-16T04:31:48.545Z,101413.88
2023-05-16T04:34:15.906Z,101418.28
2023-05-16T04:36:42.349Z,101424.28
2023-05-16T04:39:08.816Z,101427.75
2023-05-16T04:41:36.151Z,101434.06
2023-05-16T04:44:06.369Z,101431.34
2023-05-16T04:46:32.851Z,101424.16
2023-05-16T04:48:59.291Z,101433.38
2023-05-16T04:51:25.782Z,101432.94
2023-05-16T04:53:52.181Z,101436.19
2023-05-16T04:56:18.935Z,101446.19
2023-05-16T04:58:45.389Z,101445.09
2023-05-16T05:01:11.852Z,101458.44
2023-05-16T05:03:38.268Z,101446.56
2023-05-16T05:06:04.930Z,101455.72
2023-05-16T05:08:31.362Z,101459.91
2023-05-16T05:10:57.815Z,101460.53
2023-05-16T05:13:24.243Z,101454.81
2023-05-16T05:15:52.334Z,101457.47
2023-05-16T05:18:18.862Z,101463.81
2023-05-16T05:20:45.417Z,101463.19
2023-05-16T05:23:11.836Z,101476.25
2023-05-16T05:25:38.769Z,101473.56
2023-05-16T05:28:05.956Z,101476.25
2023-05-16T05:30:32.396Z,101477.56
2023-05-16T05:32:58.916Z,101480.22
2023-05-16T05:35:25.529Z,101486.09
2023-05-16T05:37:52.265Z,101478.53
2023-05-16T05:40:18.657Z,101492.09
2023-05-16T05:42:46.990Z,101494.13
2023-05-16T05:45:14.689Z,101495.44
2023-05-16T05:47:41.281Z,101500.81
2023-05-16T05:50:08.932Z,101500.09
2023-05-16T05:52:35.353Z,101500.09
2023-05-16T05:55:01.975Z,101502.91
2023-05-16T05:57:28.384Z,101505.19
2023-05-16T05:59:54.777Z,101500.66
2023-05-16T06:02:21.339Z,101513.28
2023-05-16T06:04:47.981Z,101513.44
2023-05-16T06:07:16.073Z,101518.75
2023-05-16T06:09:43.487Z,101518.44
2023-05-16T06:12:09.960Z,101517.81
2023-05-16T06:14:36.408Z,101521.69
2023-05-16T06:17:02.917Z,101518.19
2023-05-16T06:19:29.485Z,101521.63
2023-05-16T06:21:56.266Z,101534.50
2023-05-16T06:24:22.855Z,101531.97
2023-05-16T06:26:50.264Z,101545.75
2023-05-16T06:29:17.436Z,101530.81
2023-05-16T06:31:46.423Z,101540.91
2023-05-16T06:34:13.087Z,101538.78
2023-05-16T06:36:39.524Z,101535.97
2023-05-16T06:39:05.969Z,101540.66
2023-05-16T06:41:33.040Z,101544.31
2023-05-16T06:43:59.701Z,101541.97
2023-05-16T06:46:26.391Z,101539.88
2023-05-16T06:48:52.943Z,101538.78
2023-05-16T06:51:19.420Z,101545.72
2023-05-16T06:53:48.738Z,101540.19
2023-05-16T06:56:15.166Z,101541.03
2023-05-16T06:58:41.927Z,101536.44
2023-05-16T07:01:08.446Z,101535.91
2023-05-16T07:03:35.238Z,101542.41
2023-05-16T07:06:01.728Z,101544.88
2023-05-16T07:08:28.226Z,101538.72
2023-05-16T07:10:54.692Z,101550.06
2023-05-16T07:13:21.272Z,101546.19
2023-05-16T07:15:47.722Z,101548.16
2023-05-16T07:18:14.312Z,101558.41
2023-05-16T07:20:40.947Z,101565.25
2023-05-16T07:23:07.452Z,101555.31
2023-05-16T07:25:33.986Z,101550.91
2023-05-16T07:28:01.006Z,101561.84
2023-05-16T07:30:27.632Z,101568.56
2023-05-16T07:32:55.262Z,101568.66
2023-05-16T07:35:21.724Z,101557.22
2023-05-16T07:37:48.234Z,101567.25
2023-05-16T07:40:14.969Z,101565.81
2023-05-16T07:42:41.416Z,101566.59
2023-05-16T07:45:08.370Z,101561.31
2023-05-16T07:47:35.443Z,101564.31
2023-05-16T07:50:02.094Z,101567.34
2023-05-16T07:52:28.598Z,101565.78
2023-05-16T07:54:55.040Z,101572.03
2023-05-16T07:57:22.765Z,101572.22
2023-05-16T07:59:52.373Z,101559.41
2023-05-16T08:02:19.355Z,101561.03
2023-05-16T08:04:46.984Z,101559.69
2023-05-16T08:07:13.629Z,101559.88
2023-05-16T08:09:40.249Z,101567.16
2023-05-16T08:12:07.241Z,101564.16
2023-05-16T08:14:33.930Z,101550.31
2023-05-16T08:17:00.895Z,101564.91
2023-05-16T08:19:27.519Z,101561.19
2023-05-16T08:21:54.104Z,101566.13
2023-05-16T08:24:20.628Z,101562.63
2023-05-16T08:26:47.238Z,101570.22
2023-05-16T08:29:13.840Z,101571.38
2023-05-16T08:31:40.411Z,101569.72
2023-05-16T08:34:06.926Z,101566.41
2023-05-16T08:36:35.547Z,101564.34
2023-05-16T08:39:02.174Z,101569.13
2023-05-16T08:41:29.406Z,101568.22
2023-05-16T08:43:56.090Z,101564.13
2023-05-16T08:46:23.936Z,101562.72
2023-05-16T08:48:54.290Z,101557.75
2023-05-16T08:51:21.318Z,101564.41
2023-05-16T08:53:57.512Z,101569.03
2023-05-16T08:56:25.177Z,101566.50
2023-05-16T08:58:55.195Z,101561.56
2023-05-16T09:01:22.948Z,101560.50
2023-05-16T09:03:51.058Z,101562.25
2023-05-16T09:06:17.775Z,101567.22
2023-05-16T09:08:44.591Z,101573.22
2023-05-16T09:11:11.187Z,101564.44
2023-05-16T09:13:39.387Z,101562.03
2023-05-16T09:16:11.012Z,101569.03
2023-05-16T09:18:38.040Z,101566.19
2023-05-16T09:21:07.891Z,101570.03
2023-05-16T09:23:36.973Z,101565.91
2023-05-16T09:26:05.542Z,101567.00
2023-05-16T09:28:32.161Z,101570.59
2023-05-16T09:30:59.419Z,101565.75
2023-05-16T09:33:29.682Z,101559.63
2023-05-16T09:36:01.005Z,101567.63
2023-05-16T09:38:28.549Z,101567.44
2023-05-16T09:40:55.697Z,101568.16
2023-05-16T09:43:27.086Z,101566.31
2023-05-16T09:45:54.021Z,101570.56
2023-05-16T09:48:21.777Z,101575.50
2023-05-16T09:50:52.465Z,101566.22
2023-05-16T09:53:27.163Z,101574.97
2023-05-16T09:56:12.324Z,101555.28
2023-05-16T09:58:41.557Z,101560.06
2023-05-16T10:01:08.847Z,101565.00
2023-05-16T10:03:40.751Z,101565.03
2023-05-16T10:06:08.459Z,101574.75
2023-05-16T10:08:36.851Z,101564.75
2023-05-16T10:11:06.829Z,101559.44
2023-05-16T10:13:35.809Z,101558.28
2023-05-16T10:16:07.803Z,101543.25
2023-05-16T10:18:35.886Z,101553.25
2023-05-16T10:21:07.396Z,101548.31
2023-05-16T10:23:37.208Z,101554.19
2023-05-16T10:26:06.022Z,101550.88
2023-05-16T10:28:33.173Z,101554.25
2023-05-16T10:31:01.716Z,101549.94
2023-05-16T10:33:28.407Z,101563.56
2023-05-16T10:35:55.591Z,101560.44
2023-05-16T10:38:24.459Z,101552.97
2023-05-16T10:40:51.271Z,101555.97
2023-05-16T10:43:30.421Z,101553.06
2023-05-16T10:45:58.654Z,101559.09
2023-05-16T10:48:36.427Z,101551.31
2023-05-16T10:51:03.927Z,101554.88
2023-05-16T10:53:33.126Z,101547.88
2023-05-16T10:55:59.509Z,101554.59
2023-05-16T10:58:35.250Z,101546.19
2023-05-16T11:01:30.037Z,101537.00
2023-05-16T11:03:59.844Z,101542.50
2023-05-16T11:06:27.424Z,101540.47
2023-05-16T11:09:13.464Z,101551.38
2023-05-16T11:11:52.192Z,101544.69
2023-05-16T11:14:33.949Z,101556.38
2023-05-16T11:17:14.093Z,101553.31
2023-05-16T11:19:44.107Z,101552.78
2023-05-16T11:22:19.313Z,101551.38
2023-05-16T11:24:55.690Z,101557.22
2023-05-16T11:27:30.999Z,101557.09
2023-05-16T11:30:12.772Z,101555.72
2023-05-16T11:32:41.088Z,101548.56
2023-05-16T11:35:11.049Z,101553.59
2023-05-16T11:37:39.719Z,101557.09
2023-05-16T11:40:17.486Z,101565.53
2023-05-16T11:42:50.420Z,101562.38
2023-05-16T11:45:19.159Z,101570.78
2023-05-16T11:47:47.991Z,101568.88
2023-05-16T11:50:19.673Z,101582.78
2023-05-16T11:52:48.249Z,101589.41
2023-05-16T11:55:28.331Z,101599.50
2023-05-16T11:57:59.917Z,101593.16
2023-05-16T12:00:27.541Z,101589.63
2023-05-16T12:03:01.257Z,101585.25
2023-05-16T12:05:29.114Z,101588.59
2023-05-16T12:07:55.854Z,101583.59
2023-05-16T12:10:22.336Z,101585.63
2023-05-16T12:12:54.746Z,101574.91
2023-05-16T12:15:22.530Z,101587.41
2023-05-16T12:17:49.560Z,101575.59
2023-05-16T12:20:17.022Z,101581.88
2023-05-16T12:22:45.292Z,101577.75
2023-05-16T12:25:22.360Z,101567.13
2023-05-16T12:27:49.119Z,101572.13
2023-05-16T12:30:26.899Z,101569.59
2023-05-16T12:33:05.815Z,101566.88
2023-05-16T12:36:06.806Z,101584.00
2023-05-16T12:38:33.396Z,101580.03
2023-05-16T12:40:59.981Z,101582.00
2023-05-16T12:43:27.751Z,101573.69
2023-05-16T12:45:56.652Z,101580.66
2023-05-16T12:48:25.005Z,101586.06
2023-05-16T12:50:51.507Z,101587.81
2023-05-16T12:53:18.958Z,101573.88
2023-05-16T12:55:45.662Z,101576.50
2023-05-16T12:58:12.721Z,101571.53
2023-05-16T13:00:39.428Z,101572.63
2023-05-16T13:03:06.418Z,101572.94
2023-05-16T13:05:33.255Z,101556.38
2023-05-16T13:07:59.897Z,101565.53
2023-05-16T13:10:27.135Z,101558.31
2023-05-16T13:12:53.951Z,101561.94
2023-05-16T13:15:20.478Z,101557.75
2023-05-16T13:17:48.529Z,101560.16
2023-05-16T13:20:15.580Z,101552.75
2023-05-16T13:22:44.846Z,101555.50
2023-05-16T13:25:11.760Z,101556.19
2023-05-16T13:27:38.440Z,101545.03
2023-05-16T13:30:05.773Z,101555.97
2023-05-16T13:32:32.392Z,101564.38
2023-05-16T13:34:58.921Z,101560.03
2023-05-16T13:37:25.755Z,101561.06
2023-05-16T13:39:54.672Z,101562.44
2023-05-16T13:42:21.228Z,101567.41
2023-05-16T13:44:47.669Z,101563.41
2023-05-16T13:47:14.361Z,101562.44
2023-05-16T13:49:40.889Z,101565.22
2023-05-16T13:52:07.422Z,101568.41
2023-05-16T13:54:34.140Z,101560.66
2023-05-16T13:57:02.127Z,101563.88
2023-05-16T13:59:48.692Z,101567.94
2023-05-16T14:02:15.325Z,101569.16
2023-05-16T14:04:41.918Z,101575.97
2023-05-16T14:07:10.857Z,101585.00
2023-05-16T14:09:39.388Z,101581.22
2023-05-16T14:12:08.882Z,101582.06
2023-05-16T14:14:35.929Z,101584.66
2023-05-16T14:17:03.810Z,101587.28
2023-05-16T14:19:31.390Z,101591.59
2023-05-16T14:21:58.155Z,101588.72
2023-05-16T14:24:34.828Z,101585.91
2023-05-16T14:27:01.886Z,101585.22
2023-05-16T14:29:28.541Z,101595.59
2023-05-16T14:31:55.330Z,101593.00
2023-05-16T14:34:22.402Z,101593.34
2023-05-16T14:36:49.595Z,101592.84
2023-05-16T14:39:16.498Z,101589.28
2023-05-16T14:41:43.088Z,101596.31
2023-05-16T14:44:09.824Z,101590.38
2023-05-16T14:46:36.329Z,101593.72
2023-05-16T14:49:02.873Z,101590.38
2023-05-16T14:51:29.551Z,101595.09
2023-05-16T14:53:56.278Z,101593.69
2023-05-16T14:56:22.973Z,101589.34
2023-05-16T14:58:49.777Z,101592.56
2023-05-16T15:01:16.722Z,101592.22
2023-05-16T15:03:54.658Z,101594.81
2023-05-16T15:09:03.165Z,101596.75
2023-05-16T15:14:10.875Z,101602.09
2023-05-16T15:16:39.361Z,101610.97
2023-05-16T15:19:06.102Z,101603.50
2023-05-16T15:21:32.745Z,101614.75
2023-05-16T15:23:59.704Z,101616.59
2023-05-16T15:26:26.582Z,101611.72
2023-05-16T15:28:55.530Z,101610.00
2023-05-16T15:31:22.740Z,101614.28
2023-05-16T15:33:49.447Z,101622.06
2023-05-16T15:36:15.939Z,101627.63
2023-05-16T15:38:45.503Z,101621.56
2023-05-16T15:41:18.689Z,101619.16
2023-05-16T15:43:53.257Z,101627.72
2023-05-16T15:46:19.811Z,101621.88
2023-05-16T15:48:46.395Z,101619.41
2023-05-16T15:51:13.247Z,101632.88
2023-05-16T15:53:39.735Z,101624.31
2023-05-16T15:56:07.065Z,101632.88
2023-05-16T15:58:33.732Z,101634.44
2023-05-16T16:01:00.333Z,101635.13
2023-05-16T16:03:26.919Z,101637.75
2023-05-16T16:05:53.548Z,101637.50
2023-05-16T16:08:20.895Z,101639.97
2023-05-16T16:10:47.382Z,101639.97
2023-05-16T16:13:13.871Z,101636.88
2023-05-16T16:15:42.140Z,101649.34
2023-05-16T16:18:09.332Z,101644.16
2023-05-16T16:20:35.901Z,101652.66
2023-05-16T16:23:02.550Z,101647.63
2023-05-16T16:25:29.362Z,101645.84
2023-05-16T16:27:56.246Z,101651.72
2023-05-16T16:30:22.742Z,101644.22
2023-05-16T16:32:49.290Z,101642.81
2023-05-16T16:35:16.063Z,101655.03
2023-05-16T16:37:46.623Z,101659.00
2023-05-16T16:40:21.521Z,101668.88
2023-05-16T16:42:48.364Z,101663.13
2023-05-16T16:45:14.951Z,101662.63
2023-05-16T16:47:41.888Z,101675.81
2023-05-16T16:50:09.008Z,101669.66
2023-05-16T16:52:45.927Z,101670.38
2023-05-16T16:55:13.075Z,101671.78
2023-05-16T16:57:39.553Z,101673.97
2023-05-16T17:00:07.294Z,101681.75
2023-05-16T17:02:33.859Z,101690.38
2023-05-16T17:05:00.503Z,101686.06
2023-05-16T17:07:27.228Z,101688.91
2023-05-16T17:09:56.149Z,101689.16
2023-05-16T17:12:22.819Z,101697.06
2023-05-16T17:14:50.360Z,101693.34
2023-05-16T17:17:18.124Z,101702.44
2023-05-16T17:19:47.743Z,101701.72
2023-05-16T17:22:14.586Z,101701.22
2023-05-16T17:24:41.132Z,101700.28
2023-05-16T17:27:07.584Z,101704.94
2023-05-16T17:29:34.188Z,101701.84
2023-05-16T17:32:01.095Z,101706.69
2023-05-16T17:34:27.659Z,101706.84
2023-05-16T17:36:54.224Z,101710.41
2023-05-16T17:39:20.910Z,101717.56
2023-05-16T17:41:47.609Z,101719.09
2023-05-16T17:44:14.104Z,101722.28
2023-05-16T17:46:40.580Z,101715.38
2023-05-16T17:49:07.992Z,101722.75
2023-05-16T17:51:52.228Z,101709.59
2023-05-16T17:54:20.106Z,101709.34
2023-05-16T17:56:47.568Z,101720.09
2023-05-16T17:59:14.985Z,101723.75
2023-05-16T18:01:42.088Z,101724.22
2023-05-16T18:04:09.212Z,101726.13
2023-05-16T18:06:37.690Z,101728.94
2023-05-16T18:09:06.983Z,101726.19
2023-05-16T18:11:34.326Z,101730.59
2023-05-16T18:14:02.080Z,101734.25
2023-05-16T18:16:29.890Z,101737.13
2023-05-16T18:18:57.862Z,101726.63
2023-05-16T18:21:24.682Z,101738.31
2023-05-16T18:23:51.759Z,101738.63
2023-05-16T18:26:19.296Z,101730.78
2023-05-16T18:28:46.367Z,101737.78
2023-05-16T18:31:12.855Z,101729.91
2023-05-16T18:33:39.410Z,101738.22
2023-05-16T18:36:06.162Z,101732.97
2023-05-16T18:38:33.717Z,101738.56
2023-05-16T18:41:00.945Z,101728.19
2023-05-16T18:43:27.563Z,101736.78
2023-05-16T18:45:54.065Z,101738.44
2023-05-16T18:48:20.658Z,101735.94
2023-05-16T18:50:47.205Z,101736.56
2023-05-16T18:53:13.706Z,101740.22
2023-05-16T18:55:40.167Z,101738.78
2023-05-16T18:58:07.015Z,101736.06
2023-05-16T19:00:34.350Z,101753.47
2023-05-16T19:03:01.240Z,101758.72
2023-05-16T19:05:28.141Z,101754.53
2023-05-16T19:07:54.994Z,101742.97
2023-05-16T19:10:21.624Z,101748.09
2023-05-16T19:12:49.096Z,101750.84
2023-05-16T19:15:15.851Z,101756.81
2023-05-16T19:17:42.518Z,101762.16
2023-05-16T19:20:10.867Z,101761.34
2023-05-16T19:22:37.779Z,101767.63
2023-05-16T19:25:05.495Z,101764.50
2023-05-16T19:27:32.468Z,101769.72
2023-05-16T19:29:58.925Z,101769.88
2023-05-16T19:32:25.562Z,101770.91
2023-05-16T19:34:52.282Z,101767.56
2023-05-16T19:37:18.984Z,101773.75
2023-05-16T19:39:45.543Z,101770.38
2023-05-16T19:42:12.013Z,101770.19
2023-05-16T19:44:38.532Z,101774.69
2023-05-16T19:47:05.426Z,101774.91
2023-05-16T19:49:32.096Z,101776.72
2023-05-16T19:51:58.574Z,101766.31
2023-05-16T19:54:25.091Z,101773.25
2023-05-16T19:56:51.582Z,101776.81
2023-05-16T19:59:18.216Z,101778.47
2023-05-16T20:01:45.105Z,101792.31
2023-05-16T20:04:11.830Z,101789.91
2023-05-16T20:06:38.468Z,101773.47
2023-05-16T20:09:06.166Z,101782.47
2023-05-16T20:11:33.077Z,101788.75
2023-05-16T20:14:00.153Z,101788.34
2023-05-16T20:16:27.430Z,101797.28
2023-05-16T20:18:54.303Z,101793.09
2023-05-16T20:21:21.016Z,101794.16
2023-05-16T20:23:47.645Z,101805.69
2023-05-16T20:26:14.960Z,101790.16
2023-05-16T20:28:42.226Z,101801.56
2023-05-16T20:31:08.788Z,101799.06
2023-05-16T20:33:35.602Z,101806.22
2023-05-16T20:36:02.320Z,101803.69
2023-05-16T20:38:28.886Z,101806.41
2023-05-16T20:40:55.752Z,101807.44
2023-05-16T20:43:22.584Z,101812.03
2023-05-16T20:45:49.738Z,101811.44
2023-05-16T20:48:16.383Z,101811.63
2023-05-16T20:50:42.983Z,101809.13
2023-05-16T20:53:09.435Z,101811.09
2023-05-16T20:55:35.989Z,101815.69
2023-05-16T20:58:02.710Z,101815.78
2023-05-16T21:00:29.244Z,101810.97
2023-05-16T21:02:55.800Z,101823.41
2023-05-16T21:05:25.633Z,101823.53
2023-05-16T21:07:53.110Z,101827.91
2023-05-16T21:10:20.050Z,101830.75
2023-05-16T21:12:46.538Z,101828.03
2023-05-16T21:15:12.996Z,101832.34
2023-05-16T21:17:40.968Z,101830.53
2023-05-16T21:20:08.319Z,101829.72
2023-05-16T21:22:35.874Z,101829.91
2023-05-16T21:25:02.422Z,101829.38
2023-05-16T21:27:28.904Z,101827.16
2023-05-16T21:29:55.375Z,101823.81
2023-05-16T21:32:21.945Z,101825.69
2023-05-16T21:34:50.537Z,101828.06
2023-05-16T21:37:17.030Z,101828.38
2023-05-16T21:39:43.541Z,101823.22
2023-05-16T21:42:09.989Z,101821.63
2023-05-16T21:44:36.456Z,101829.78
2023-05-16T21:47:03.759Z,101825.06
2023-05-16T21:49:30.314Z,101821.78
2023-05-16T21:51:56.821Z,101833.28
2023-05-16T21:54:23.273Z,101812.78
2023-05-16T21:56:49.723Z,101826.59
2023-05-16T21:59:16.270Z,101827.91
2023-05-16T22:01:42.896Z,101833.34
2023-05-16T22:04:09.609Z,101836.13
2023-05-16T22:06:36.191Z,101838.03
2023-05-16T22:09:02.663Z,101839.03
2023-05-16T22:11:29.242Z,101843.53
2023-05-16T22:13:56.183Z,101838.50
2023-05-16T22:16:22.696Z,101843.75
2023-05-16T22:18:49.426Z,101837.75
2023-05-16T22:21:20.100Z,101836.00
2023-05-16T22:23:46.497Z,101844.13
2023-05-16T22:26:13.023Z,101836.56
2023-05-16T22:28:39.508Z,101834.88
2023-05-16T22:31:06.006Z,101843.03
2023-05-16T22:33:32.604Z,101845.06
2023-05-16T22:35:59.144Z,101836.75
2023-05-16T22:38:25.622Z,101843.13
2023-05-16T22:40:52.837Z,101847.78
2023-05-16T22:43:19.460Z,101854.13
2023-05-16T22:45:45.931Z,101857.88
2023-05-16T22:48:12.521Z,101854.78
2023-05-16T22:50:39.087Z,101850.75
2023-05-16T22:53:05.581Z,101863.22
2023-05-16T22:55:33.825Z,101856.69
2023-05-16T22:58:00.670Z,101863.03
2023-05-16T23:00:27.195Z,101869.53
2023-05-16T23:02:53.794Z,101873.25
2023-05-16T23:05:20.533Z,101872.69
2023-05-16T23:07:46.993Z,101871.28
2023-05-16T23:10:13.532Z,101876.66
2023-05-16T23:12:40.004Z,101871.97
2023-05-16T23:15:09.951Z,101870.47
2023-05-16T23:17:38.134Z,101869.06
2023-05-16T23:20:07.893Z,101865.88
2023-05-16T23:22:34.469Z,101871.28
2023-05-16T23:25:00.995Z,101871.44
2023-05-16T23:27:27.577Z,101875.22
2023-05-16T23:29:54.124Z,101882.38
2023-05-16T23:32:20.801Z,101874.00
2023-05-16T23:34:47.305Z,101877.59
2023-05-16T23:37:13.794Z,101882.16
2023-05-16T23:39:40.904Z,101886.69
2023-05-16T23:42:07.527Z,101880.03
2023-05-16T23:44:34.804Z,101876.00
2023-05-16T23:47:01.345Z,101885.69
2023-05-16T23:49:27.756Z,101888.56
2023-05-16T23:51:57.997Z,101886.19
2023-05-16T23:54:26.180Z,101886.34
2023-05-16T23:56:53.205Z,101888.28
2023-05-16T23:59:19.780Z,101885.91
